createdAt,value
2022-09-16T00:01:21.203Z,24.70
2022-09-16T00:03:49.549Z,24.70
2022-09-16T00:06:22.929Z,24.70
2022-09-16T00:08:51.853Z,24.70
2022-09-16T00:11:21.899Z,24.70
2022-09-16T00:13:50.106Z,24.70
2022-09-16T00:16:21.796Z,24.60
2022-09-16T00:18:50.335Z,24.60
2022-09-16T00:21:18.576Z,24.60
2022-09-16T00:23:46.680Z,24.60
2022-09-16T00:26:15.310Z,24.60
2022-09-16T00:28:45.022Z,24.60
2022-09-16T00:31:13.170Z,24.60
2022-09-16T00:33:41.298Z,24.60
2022-09-16T00:36:11.437Z,24.60
2022-09-16T00:38:39.684Z,24.60
2022-09-16T00:41:08.025Z,24.60
2022-09-16T00:43:52.452Z,24.60
2022-09-16T00:46:24.702Z,24.60
2022-09-16T00:48:53.005Z,24.60
2022-09-16T00:51:22.111Z,24.60
2022-09-16T00:53:56.979Z,24.60
2022-09-16T00:56:27.343Z,24.60
2022-09-16T00:59:03.365Z,24.60
2022-09-16T01:01:32.959Z,24.60
2022-09-16T01:04:04.431Z,24.60
2022-09-16T01:06:37.045Z,24.60
2022-09-16T01:09:05.447Z,24.60
2022-09-16T01:11:33.549Z,24.60
2022-09-16T01:14:19.062Z,24.60
2022-09-16T01:16:58.212Z,24.50
2022-09-16T01:19:57.140Z,24.50
2022-09-16T01:22:43.654Z,24.50
2022-09-16T01:25:28.421Z,24.50
2022-09-16T01:28:22.030Z,24.50
2022-09-16T01:31:07.692Z,24.50
2022-09-16T01:33:47.403Z,24.50
2022-09-16T01:36:31.372Z,24.50
2022-09-16T01:39:09.174Z,24.50
2022-09-16T01:41:48.604Z,24.40
2022-09-16T01:44:25.734Z,24.40
2022-09-16T01:47:03.267Z,24.40
2022-09-16T01:49:40.945Z,24.40
2022-09-16T01:52:20.440Z,24.40
2022-09-16T01:54:53.985Z,24.50
2022-09-16T01:57:27.059Z,24.40
2022-09-16T02:00:00.854Z,24.40
2022-09-16T02:02:37.377Z,24.40
2022-09-16T02:05:10.864Z,24.40
2022-09-16T02:07:44.878Z,24.40
2022-09-16T02:10:19.575Z,24.40
2022-09-16T02:12:50.890Z,24.40
2022-09-16T02:15:23.118Z,24.40
2022-09-16T02:17:59.080Z,24.40
2022-09-16T02:20:30.487Z,24.40
2022-09-16T02:23:01.860Z,24.40
2022-09-16T02:25:34.225Z,24.40
2022-09-16T02:28:06.985Z,24.40
2022-09-16T02:30:36.781Z,24.40
2022-09-16T02:33:09.974Z,24.40
2022-09-16T02:35:40.408Z,24.40
2022-09-16T02:38:14.290Z,24.40
2022-09-16T02:40:48.611Z,24.40
2022-09-16T02:43:17.220Z,24.40
2022-09-16T02:45:50.963Z,24.40
2022-09-16T02:48:28.293Z,24.40
2022-09-16T02:51:05.086Z,24.40
2022-09-16T02:53:43.973Z,24.40
2022-09-16T02:56:19.121Z,24.40
2022-09-16T02:58:47.298Z,24.40
2022-09-16T03:01:15.744Z,24.40
2022-09-16T03:03:45.321Z,24.40
2022-09-16T03:06:23.047Z,24.40
2022-09-16T03:08:52.019Z,24.30
2022-09-16T03:11:30.531Z,24.40
2022-09-16T03:14:16.620Z,24.40
2022-09-16T03:16:54.133Z,24.30
2022-09-16T03:19:32.667Z,24.30
2022-09-16T03:22:07.341Z,24.30
2022-09-16T03:24:46.633Z,24.30
2022-09-16T03:27:19.795Z,24.30
2022-09-16T03:29:52.730Z,24.30
2022-09-16T03:32:24.476Z,24.30
2022-09-16T03:34:56.899Z,24.30
2022-09-16T03:37:28.756Z,24.30
2022-09-16T03:40:00.721Z,24.30
2022-09-16T03:42:28.989Z,24.30
2022-09-16T03:44:57.322Z,24.30
2022-09-16T03:47:25.454Z,24.30
2022-09-16T03:49:54.865Z,24.30
2022-09-16T03:52:22.900Z,24.30
2022-09-16T03:54:51.149Z,24.30
2022-09-16T03:57:19.226Z,24.30
2022-09-16T03:59:47.268Z,24.30
2022-09-16T04:02:15.396Z,24.30
2022-09-16T04:04:43.501Z,24.30
2022-09-16T04:07:12.966Z,24.30
2022-09-16T04:09:41.274Z,24.30
2022-09-16T04:12:09.574Z,24.30
2022-09-16T04:14:37.828Z,24.20
2022-09-16T04:17:06.131Z,24.30
2022-09-16T04:19:34.228Z,24.30
2022-09-16T04:22:02.273Z,24.20
2022-09-16T04:24:31.713Z,24.30
2022-09-16T04:26:59.814Z,24.30
2022-09-16T04:29:27.973Z,24.20
2022-09-16T04:31:56.130Z,24.20
2022-09-16T04:34:24.232Z,24.20
2022-09-16T04:36:53.610Z,24.20
2022-09-16T04:39:22.156Z,24.20
2022-09-16T04:41:51.647Z,24.20
2022-09-16T04:44:19.860Z,24.20
2022-09-16T04:46:48.005Z,24.20
2022-09-16T04:49:16.114Z,24.20
2022-09-16T04:51:44.225Z,24.10
2022-09-16T04:54:12.754Z,24.10
2022-09-16T04:56:40.834Z,24.00
2022-09-16T04:59:11.752Z,24.00
2022-09-16T05:01:41.815Z,24.00
2022-09-16T05:04:11.329Z,24.00
2022-09-16T05:06:41.587Z,23.90
2022-09-16T05:09:11.503Z,23.90
2022-09-16T05:11:41.094Z,23.90
2022-09-16T05:14:14.847Z,23.90
2022-09-16T05:16:43.274Z,23.90
2022-09-16T05:19:13.033Z,23.90
2022-09-16T05:21:41.604Z,23.90
2022-09-16T05:24:11.558Z,23.90
2022-09-16T05:26:41.963Z,23.90
2022-09-16T05:29:15.543Z,23.90
2022-09-16T05:31:47.260Z,23.90
2022-09-16T05:34:16.804Z,23.80
2022-09-16T05:36:47.536Z,23.90
2022-09-16T05:39:23.267Z,23.80
2022-09-16T05:41:54.926Z,23.80
2022-09-16T05:44:24.616Z,23.80
2022-09-16T05:46:52.885Z,23.80
2022-09-16T05:49:21.682Z,23.80
2022-09-16T05:51:50.851Z,23.80
2022-09-16T05:54:19.904Z,23.80
2022-09-16T05:56:48.770Z,23.80
2022-09-16T05:59:18.070Z,23.80
2022-09-16T06:01:47.601Z,23.90
2022-09-16T06:04:16.703Z,23.90
2022-09-16T06:06:46.683Z,23.90
2022-09-16T06:09:17.598Z,24.00
2022-09-16T06:11:47.038Z,24.00
2022-09-16T06:14:16.601Z,24.00
2022-09-16T06:16:44.938Z,24.10
2022-09-16T06:19:16.053Z,24.10
2022-09-16T06:21:45.031Z,24.10
2022-09-16T06:24:14.126Z,24.10
2022-09-16T06:26:44.033Z,24.10
2022-09-16T06:29:12.659Z,24.10
2022-09-16T06:31:40.764Z,24.10
2022-09-16T06:34:13.294Z,24.10
2022-09-16T06:36:45.046Z,24.10
2022-09-16T06:39:14.856Z,24.10
2022-09-16T06:41:42.972Z,24.10
2022-09-16T06:44:11.251Z,24.10
2022-09-16T06:46:39.374Z,24.10
2022-09-16T06:49:07.476Z,24.20
2022-09-16T06:51:36.911Z,24.20
2022-09-16T06:54:08.772Z,24.20
2022-09-16T06:56:39.208Z,24.20
2022-09-16T06:59:07.770Z,24.20
2022-09-16T07:01:36.051Z,24.20
2022-09-16T07:04:06.461Z,24.30
2022-09-16T07:09:24.632Z,24.30
2022-09-16T07:11:52.700Z,24.30
2022-09-16T07:14:20.774Z,24.30
2022-09-16T07:16:49.069Z,24.40
2022-09-16T07:19:17.264Z,24.40
2022-09-16T07:21:45.538Z,24.40
2022-09-16T07:24:15.020Z,24.40
2022-09-16T07:26:45.425Z,24.40
2022-09-16T07:29:15.724Z,24.40
2022-09-16T07:31:44.027Z,24.50
2022-09-16T07:34:13.079Z,24.50
2022-09-16T07:36:42.883Z,24.50
2022-09-16T07:39:12.568Z,24.60
2022-09-16T07:41:42.429Z,24.60
2022-09-16T07:44:14.998Z,24.60
2022-09-16T07:46:43.131Z,24.60
2022-09-16T07:49:14.866Z,24.60
2022-09-16T07:51:43.747Z,24.60
2022-09-16T07:54:16.723Z,24.70
2022-09-16T07:56:45.633Z,24.70
2022-09-16T07:59:18.857Z,24.70
2022-09-16T08:01:48.321Z,24.70
2022-09-16T08:04:17.320Z,24.70
2022-09-16T08:06:45.385Z,24.70
2022-09-16T08:09:38.543Z,24.70
2022-09-16T08:12:05.615Z,24.70
2022-09-16T08:14:35.231Z,24.70
2022-09-16T08:17:03.945Z,24.80
2022-09-16T08:19:32.081Z,24.70
2022-09-16T08:22:00.260Z,24.80
2022-09-16T08:24:28.422Z,24.80
2022-09-16T08:29:29.746Z,24.80
2022-09-16T08:31:59.379Z,24.80
2022-09-16T08:34:27.653Z,24.80
2022-09-16T08:36:55.755Z,24.80
2022-09-16T08:39:23.980Z,24.90
2022-09-16T08:42:03.216Z,24.90
2022-09-16T08:44:40.141Z,24.80
2022-09-16T08:47:23.781Z,24.80
2022-09-16T08:49:53.227Z,24.80
2022-09-16T08:52:31.955Z,24.80
2022-09-16T08:55:04.042Z,24.80
2022-09-16T08:57:39.515Z,24.80
2022-09-16T09:00:14.339Z,24.80
2022-09-16T09:02:51.919Z,24.80
2022-09-16T09:05:28.361Z,24.80
2022-09-16T09:08:12.995Z,24.80
2022-09-16T09:10:48.780Z,24.80
2022-09-16T09:13:34.280Z,24.80
2022-09-16T09:16:11.453Z,24.70
2022-09-16T09:18:51.132Z,24.70
2022-09-16T09:21:27.632Z,24.70
2022-09-16T09:24:18.248Z,24.70
2022-09-16T09:26:50.186Z,24.60
2022-09-16T09:29:43.874Z,24.60
2022-09-16T09:32:22.252Z,24.60
2022-09-16T09:35:16.735Z,24.60
2022-09-16T09:38:08.352Z,24.60
2022-09-16T09:40:41.851Z,24.60
2022-09-16T09:43:14.549Z,24.60
2022-09-16T09:45:48.337Z,24.60
2022-09-16T09:48:22.475Z,24.50
2022-09-16T09:50:53.773Z,24.50
2022-09-16T09:53:26.268Z,24.50
2022-09-16T09:56:01.457Z,24.50
2022-09-16T09:58:35.501Z,24.50
2022-09-16T10:01:03.789Z,24.50
2022-09-16T10:03:32.374Z,24.50
2022-09-16T10:06:01.862Z,24.50
2022-09-16T10:08:34.051Z,24.50
2022-09-16T10:11:04.079Z,24.40
2022-09-16T10:13:32.471Z,24.40
2022-09-16T10:16:15.142Z,24.40
2022-09-16T10:18:45.176Z,24.40
2022-09-16T10:21:17.707Z,24.40
2022-09-16T10:23:56.000Z,24.40
2022-09-16T10:26:25.868Z,24.40
2022-09-16T10:29:00.257Z,24.40
2022-09-16T10:31:34.666Z,24.40
2022-09-16T10:34:04.534Z,24.40
2022-09-16T10:36:36.570Z,24.50
2022-09-16T10:39:06.223Z,24.50
2022-09-16T10:41:41.768Z,24.50
2022-09-16T10:44:17.658Z,24.50
2022-09-16T10:46:53.944Z,24.50
2022-09-16T10:49:27.233Z,24.50
2022-09-16T10:51:56.871Z,24.60
2022-09-16T10:54:28.194Z,24.60
2022-09-16T10:56:56.466Z,24.60
2022-09-16T10:59:24.637Z,24.60
2022-09-16T11:02:00.390Z,24.60
2022-09-16T11:04:54.008Z,24.60
2022-09-16T11:07:33.218Z,24.70
2022-09-16T11:10:11.857Z,24.70
2022-09-16T11:12:59.995Z,24.70
2022-09-16T11:15:39.269Z,24.70
2022-09-16T11:18:37.184Z,24.70
2022-09-16T11:21:29.104Z,24.70
2022-09-16T11:24:24.708Z,24.70
2022-09-16T11:27:03.557Z,24.70
2022-09-16T11:29:51.944Z,24.70
2022-09-16T11:32:29.695Z,24.60
2022-09-16T11:35:35.616Z,24.60
2022-09-16T11:38:12.666Z,24.60
2022-09-16T11:40:47.979Z,24.60
2022-09-16T11:44:05.907Z,24.60
2022-09-16T11:46:45.665Z,24.60
2022-09-16T11:49:30.812Z,24.60
2022-09-16T11:52:20.464Z,24.50
2022-09-16T11:55:07.647Z,24.50
2022-09-16T11:57:40.601Z,24.50
2022-09-16T12:00:16.432Z,24.50
2022-09-16T12:02:53.885Z,24.50
2022-09-16T12:05:24.301Z,24.50
2022-09-16T12:07:58.373Z,24.50
2022-09-16T12:10:29.986Z,24.60
2022-09-16T12:13:08.950Z,24.60
2022-09-16T12:15:41.619Z,24.60
2022-09-16T12:18:14.461Z,24.70
2022-09-16T12:20:46.535Z,24.70
2022-09-16T12:23:19.585Z,24.70
2022-09-16T12:26:02.274Z,24.80
2022-09-16T12:28:37.437Z,24.80
2022-09-16T12:31:14.810Z,24.90
2022-09-16T12:33:51.590Z,24.90
2022-09-16T12:36:25.150Z,24.90
2022-09-16T12:38:53.263Z,24.90
2022-09-16T12:41:41.735Z,24.90
2022-09-16T12:44:35.628Z,24.90
2022-09-16T12:47:27.006Z,24.90
2022-09-16T12:50:21.187Z,24.90
2022-09-16T12:53:25.714Z,24.90
2022-09-16T12:56:08.813Z,24.80
2022-09-16T12:59:06.927Z,24.90
2022-09-16T13:01:40.901Z,24.90
2022-09-16T13:04:18.768Z,24.90
2022-09-16T13:06:49.341Z,24.90
2022-09-16T13:09:23.846Z,24.90
2022-09-16T13:14:49.094Z,24.90
2022-09-16T13:17:29.429Z,25.00
2022-09-16T13:20:02.082Z,25.00
2022-09-16T13:22:34.071Z,25.00
2022-09-16T13:25:10.313Z,25.10
2022-09-16T13:27:40.201Z,25.10
2022-09-16T13:30:17.114Z,25.10
2022-09-16T13:32:59.779Z,25.20
2022-09-16T13:35:40.560Z,25.20
2022-09-16T13:38:36.254Z,25.20
2022-09-16T13:41:04.740Z,25.20
2022-09-16T13:43:35.859Z,25.20
2022-09-16T13:46:07.440Z,25.20
2022-09-16T13:48:44.737Z,25.20
2022-09-16T13:51:19.262Z,25.20
2022-09-16T13:53:49.379Z,25.20
2022-09-16T13:56:44.951Z,25.20
2022-09-16T13:59:27.187Z,25.30
2022-09-16T14:02:05.812Z,25.30
2022-09-16T14:04:53.372Z,25.30
2022-09-16T14:07:32.252Z,25.30
2022-09-16T14:10:04.391Z,25.30
2022-09-16T14:12:40.655Z,25.30
2022-09-16T14:15:09.619Z,25.30
2022-09-16T14:17:41.548Z,25.30
2022-09-16T14:20:17.303Z,25.40
2022-09-16T14:22:46.193Z,25.50
2022-09-16T14:25:30.218Z,25.60
2022-09-16T14:28:16.326Z,25.10
2022-09-16T14:30:48.911Z,24.60
2022-09-16T14:33:19.811Z,24.20
2022-09-16T14:35:53.618Z,23.90
2022-09-16T14:38:44.363Z,23.60
2022-09-16T14:41:14.977Z,23.40
2022-09-16T14:43:43.131Z,23.00
2022-09-16T14:46:11.369Z,22.60
2022-09-16T14:48:42.891Z,22.40
2022-09-16T14:51:23.108Z,22.20
2022-09-16T14:54:12.295Z,22.10
2022-09-16T14:56:41.455Z,21.90
2022-09-16T14:59:13.303Z,21.60
2022-09-16T15:01:42.309Z,21.30
2022-09-16T15:04:19.116Z,21.00
2022-09-16T15:06:52.800Z,20.90
2022-09-16T15:09:27.908Z,20.70
2022-09-16T15:11:59.555Z,20.50
2022-09-16T15:14:28.300Z,20.60
2022-09-16T15:17:00.668Z,20.40
2022-09-16T15:19:31.678Z,20.30
2022-09-16T15:22:01.398Z,20.20
2022-09-16T15:24:33.727Z,20.20
2022-09-16T15:27:02.871Z,20.00
2022-09-16T15:29:34.021Z,20.00
2022-09-16T15:32:19.608Z,20.00
2022-09-16T15:34:49.596Z,20.00
2022-09-16T15:37:33.093Z,20.00
2022-09-16T15:40:12.658Z,20.10
2022-09-16T15:42:42.089Z,20.20
2022-09-16T15:45:19.802Z,20.10
2022-09-16T15:47:55.581Z,20.10
2022-09-16T15:50:25.964Z,20.20
2022-09-16T15:53:00.753Z,20.30
2022-09-16T15:55:35.203Z,20.30
2022-09-16T15:58:08.836Z,20.00
2022-09-16T16:00:58.703Z,20.00
2022-09-16T16:03:27.253Z,20.00
2022-09-16T16:05:55.957Z,20.00
2022-09-16T16:08:48.267Z,20.00
2022-09-16T16:11:18.036Z,19.90
2022-09-16T16:13:46.254Z,19.50
2022-09-16T16:16:16.643Z,19.50
2022-09-16T16:18:46.529Z,19.50
2022-09-16T16:21:16.546Z,19.40
2022-09-16T16:23:46.101Z,19.30
2022-09-16T16:26:14.217Z,19.20
2022-09-16T16:28:42.252Z,19.20
2022-09-16T16:31:12.130Z,19.00
2022-09-16T16:33:44.657Z,19.20
2022-09-16T16:36:13.732Z,19.30
2022-09-16T16:38:42.007Z,19.10
2022-09-16T16:41:12.348Z,19.10
2022-09-16T16:43:41.053Z,19.10
2022-09-16T16:46:09.356Z,18.80
2022-09-16T16:48:39.112Z,18.90
2022-09-16T16:51:09.339Z,19.00
2022-09-16T16:53:37.998Z,19.00
2022-09-16T16:56:10.276Z,19.20
2022-09-16T16:58:44.038Z,18.90
2022-09-16T17:01:13.939Z,18.60
2022-09-16T17:03:42.837Z,18.60
2022-09-16T17:06:10.934Z,18.60
2022-09-16T17:08:39.184Z,18.50
2022-09-16T17:11:10.003Z,18.30
2022-09-16T17:13:39.022Z,18.30
2022-09-16T17:16:09.315Z,18.20
2022-09-16T17:18:38.565Z,17.90
2022-09-16T17:21:09.639Z,17.60
2022-09-16T17:23:38.332Z,17.80
2022-09-16T17:26:09.208Z,18.00
2022-09-16T17:28:38.467Z,18.20
2022-09-16T17:31:11.851Z,18.40
2022-09-16T17:33:40.012Z,18.60
2022-09-16T17:36:09.432Z,18.60
2022-09-16T17:38:37.736Z,18.40
2022-09-16T17:41:07.905Z,18.10
2022-09-16T17:43:36.906Z,18.10
2022-09-16T17:46:06.812Z,18.10
2022-09-16T17:48:37.988Z,18.30
2022-09-16T17:51:06.571Z,18.40
2022-09-16T17:53:35.397Z,18.60
2022-09-16T17:56:05.003Z,18.50
2022-09-16T17:58:33.797Z,18.20
2022-09-16T18:01:07.074Z,18.00
2022-09-16T18:03:36.803Z,18.10
2022-09-16T18:06:10.487Z,18.10
2022-09-16T18:08:38.937Z,18.10
2022-09-16T18:11:08.446Z,18.00
2022-09-16T18:13:37.330Z,18.00
2022-09-16T18:16:07.421Z,17.90
2022-09-16T18:18:40.143Z,17.50
2022-09-16T18:21:10.425Z,17.20
2022-09-16T18:23:38.538Z,17.00
2022-09-16T18:26:08.382Z,16.90
2022-09-16T18:28:51.923Z,16.70
2022-09-16T18:31:26.133Z,16.50
2022-09-16T18:33:56.408Z,16.30
2022-09-16T18:36:26.494Z,16.30
2022-09-16T18:38:57.064Z,16.40
2022-09-16T18:41:26.768Z,16.60
2022-09-16T18:43:57.004Z,16.60
2022-09-16T18:46:27.062Z,16.80
2022-09-16T18:48:57.467Z,16.90
2022-09-16T18:51:27.406Z,16.90
2022-09-16T18:54:00.741Z,17.00
2022-09-16T18:56:30.293Z,17.10
2022-09-16T18:59:21.451Z,17.30
2022-09-16T19:01:50.514Z,17.50
2022-09-16T19:04:22.003Z,17.30
2022-09-16T19:06:51.968Z,17.20
2022-09-16T19:09:21.536Z,17.00
2022-09-16T19:11:52.292Z,17.00
2022-09-16T19:14:24.145Z,17.30
2022-09-16T19:16:52.360Z,17.60
2022-09-16T19:19:23.252Z,17.80
2022-09-16T19:21:51.388Z,18.10
2022-09-16T19:24:21.548Z,18.50
2022-09-16T19:26:52.039Z,18.90
2022-09-16T19:29:20.866Z,19.10
2022-09-16T19:31:51.972Z,19.20
2022-09-16T19:34:22.417Z,19.40
2022-09-16T19:36:51.051Z,19.50
2022-09-16T19:39:21.088Z,19.70
2022-09-16T19:41:49.213Z,19.70
2022-09-16T19:44:18.591Z,19.70
2022-09-16T19:46:49.094Z,19.70
2022-09-16T19:49:19.804Z,19.70
2022-09-16T19:51:52.580Z,19.60
2022-09-16T19:54:24.873Z,19.50
2022-09-16T19:56:53.515Z,19.30
2022-09-16T19:59:22.335Z,19.20
2022-09-16T20:01:50.949Z,19.10
2022-09-16T20:04:20.995Z,19.20
2022-09-16T20:06:50.854Z,19.30
2022-09-16T20:09:19.779Z,19.40
2022-09-16T20:11:49.217Z,19.40
2022-09-16T20:14:19.843Z,19.40
2022-09-16T20:16:48.972Z,19.30
2022-09-16T20:19:18.510Z,19.20
2022-09-16T20:21:47.244Z,19.20
2022-09-16T20:24:19.193Z,19.10
2022-09-16T20:26:48.127Z,18.80
2022-09-16T20:29:17.665Z,18.80
2022-09-16T20:31:46.406Z,19.00
2022-09-16T20:34:16.155Z,19.20
2022-09-16T20:36:46.027Z,19.40
2022-09-16T20:39:15.934Z,19.70
2022-09-16T20:41:45.604Z,19.90
2022-09-16T20:44:15.624Z,19.90
2022-09-16T20:46:44.648Z,20.10
2022-09-16T20:49:15.887Z,20.20
2022-09-16T20:51:44.652Z,20.40
2022-09-16T20:54:14.818Z,20.60
2022-09-16T20:56:45.698Z,20.70
2022-09-16T20:59:17.113Z,20.70
2022-09-16T21:01:46.051Z,20.60
2022-09-16T21:04:16.844Z,20.00
2022-09-16T21:06:45.541Z,20.10
2022-09-16T21:09:15.614Z,20.30
2022-09-16T21:11:45.577Z,20.30
2022-09-16T21:14:16.084Z,20.40
2022-09-16T21:16:46.440Z,20.50
2022-09-16T21:19:15.465Z,20.50
2022-09-16T21:21:46.343Z,20.50
2022-09-16T21:24:15.859Z,20.60
2022-09-16T21:26:46.005Z,20.60
2022-09-16T21:29:23.304Z,20.60
2022-09-16T21:31:51.667Z,20.70
2022-09-16T21:34:21.446Z,20.70
2022-09-16T21:36:50.000Z,20.70
2022-09-16T21:39:19.538Z,20.80
2022-09-16T21:41:49.512Z,21.00
2022-09-16T21:44:18.137Z,21.20
2022-09-16T21:46:47.238Z,21.30
2022-09-16T21:49:23.211Z,21.40
2022-09-16T21:51:52.728Z,21.50
2022-09-16T21:54:21.110Z,21.60
2022-09-16T21:56:51.331Z,21.60
2022-09-16T21:59:20.618Z,21.70
2022-09-16T22:01:49.531Z,21.80
2022-09-16T22:04:19.524Z,21.90
2022-09-16T22:06:48.703Z,21.90
2022-09-16T22:09:16.929Z,22.00
2022-09-16T22:11:45.473Z,21.90
2022-09-16T22:14:16.150Z,21.80
2022-09-16T22:16:44.263Z,21.80
2022-09-16T22:19:14.350Z,21.90
2022-09-16T22:21:44.721Z,21.90
2022-09-16T22:24:13.238Z,21.80
2022-09-16T22:26:42.971Z,21.60
2022-09-16T22:29:13.180Z,21.50
2022-09-16T22:31:43.163Z,21.50
2022-09-16T22:34:11.715Z,21.50
2022-09-16T22:36:40.260Z,21.50
2022-09-16T22:39:12.543Z,21.50
2022-09-16T22:41:40.721Z,21.40
2022-09-16T22:44:09.385Z,21.40
2022-09-16T22:46:43.638Z,21.40
2022-09-16T22:49:12.568Z,21.50
2022-09-16T22:51:40.943Z,21.60
2022-09-16T22:54:10.043Z,21.60
2022-09-16T22:56:38.339Z,21.60
2022-09-16T22:59:08.453Z,21.40
2022-09-16T23:01:38.913Z,21.30
2022-09-16T23:04:09.874Z,21.40
2022-09-16T23:06:39.923Z,21.40
2022-09-16T23:09:09.168Z,21.40
2022-09-16T23:11:37.567Z,21.40
2022-09-16T23:14:06.243Z,21.40
2022-09-16T23:16:36.546Z,21.40
2022-09-16T23:19:06.376Z,21.40
2022-09-16T23:21:36.046Z,21.50
2022-09-16T23:24:05.771Z,21.60
2022-09-16T23:26:36.279Z,21.60
2022-09-16T23:29:06.875Z,21.70
2022-09-16T23:31:40.323Z,21.60
2022-09-16T23:34:09.047Z,21.50
2022-09-16T23:36:39.151Z,21.50
2022-09-16T23:39:07.822Z,21.50
2022-09-16T23:41:38.437Z,21.60
2022-09-16T23:44:07.267Z,21.70
2022-09-16T23:46:35.404Z,21.70
2022-09-16T23:49:03.611Z,21.80
2022-09-16T23:51:34.574Z,21.80
2022-09-16T23:54:04.748Z,22.00
2022-09-16T23:56:32.926Z,22.10
2022-09-16T23:59:02.271Z,22.20
